Kenroy, Washington
Current Conditions -  °F | °C
As of 12:55 AM on Thursday 27 Nov 2014 (Local Time) from KEAT Reporting Station
Overcast Overcast  
Wind Chill: 38°   Ceiling: 400
Heat Index: 38°   Visibility: NA
Dew Point: 35°   Wind: 0mph
Humidity: 89%   Direction: NA
Pressure: 29.94"   Gusts: NA
Location:  47.3635°N, 120.348°W
Report Text: KEAT 270855Z AUTO 00000KT OVC004 03/02 A2994 RMK AO2 SLP146 T00330017 55009
Loading
Personal Weather Stations






























Interactive Weather Map New forecast layout! Learn more

10-Day Weather Forecast

Advertisements
Track Severe Weather on mobile